createdAt,value
2023-03-03T00:01:50.230Z,17.30
2023-03-03T00:04:16.862Z,15.57
2023-03-03T00:06:45.376Z,15.20
2023-03-03T00:09:11.991Z,15.15
2023-03-03T00:11:38.668Z,16.00
2023-03-03T00:14:23.065Z,17.55
2023-03-03T00:16:50.162Z,17.10
2023-03-03T00:19:19.605Z,17.15
2023-03-03T00:21:48.110Z,14.35
2023-03-03T00:24:14.734Z,13.30
2023-03-03T00:26:47.472Z,17.67
2023-03-03T00:29:40.762Z,20.67
2023-03-03T00:32:24.029Z,15.25
2023-03-03T00:34:53.080Z,14.82
2023-03-03T00:37:25.411Z,15.20
2023-03-03T00:39:52.045Z,14.35
2023-03-03T00:42:19.369Z,15.43
2023-03-03T00:44:56.981Z,16.25
2023-03-03T00:47:32.526Z,16.92
2023-03-03T00:50:08.147Z,18.08
2023-03-03T00:52:40.568Z,18.38
2023-03-03T00:55:08.368Z,15.52
2023-03-03T00:57:35.142Z,18.50
2023-03-03T01:00:01.916Z,19.15
2023-03-03T01:02:28.739Z,15.88
2023-03-03T01:04:58.276Z,14.07
2023-03-03T01:07:25.532Z,15.07
2023-03-03T01:09:52.370Z,16.75
2023-03-03T01:12:19.014Z,15.38
2023-03-03T01:14:46.137Z,17.63
2023-03-03T01:17:12.784Z,14.25
2023-03-03T01:19:39.393Z,15.52
2023-03-03T01:22:06.324Z,17.50
2023-03-03T01:24:33.468Z,16.38
2023-03-03T01:27:00.319Z,14.68
2023-03-03T01:29:27.179Z,13.90
2023-03-03T01:31:54.829Z,16.23
2023-03-03T01:34:21.899Z,12.15
2023-03-03T01:36:48.663Z,14.80
2023-03-03T01:39:15.378Z,11.88
2023-03-03T01:41:42.089Z,15.50
2023-03-03T01:44:14.784Z,19.63
2023-03-03T01:47:14.428Z,15.63
2023-03-03T01:49:49.819Z,15.05
2023-03-03T01:52:28.005Z,15.15
2023-03-03T01:55:00.410Z,14.63
2023-03-03T01:57:33.136Z,20.33
2023-03-03T02:00:02.652Z,18.65
2023-03-03T02:02:30.047Z,21.90
2023-03-03T02:04:56.715Z,18.77
2023-03-03T02:07:25.843Z,16.35
2023-03-03T02:10:05.025Z,23.17
2023-03-03T02:12:37.901Z,17.80
2023-03-03T02:15:28.217Z,21.33
2023-03-03T02:18:03.375Z,16.30
2023-03-03T02:24:33.552Z,16.73
2023-03-03T02:29:39.636Z,15.85
2023-03-03T02:32:06.300Z,15.10
2023-03-03T02:34:46.346Z,15.07
2023-03-03T02:37:13.039Z,17.73
2023-03-03T02:39:39.665Z,21.17
2023-03-03T02:42:22.193Z,19.73
2023-03-03T02:44:49.336Z,17.58
2023-03-03T02:47:16.039Z,17.83
2023-03-03T02:49:43.392Z,13.65
2023-03-03T02:52:11.379Z,17.00
2023-03-03T02:54:38.553Z,16.98
2023-03-03T02:57:06.207Z,19.17
2023-03-03T03:02:12.537Z,12.32
2023-03-03T03:04:39.255Z,15.95
2023-03-03T03:07:06.023Z,19.33
2023-03-03T03:09:32.682Z,21.02
2023-03-03T03:12:02.499Z,18.42
2023-03-03T03:14:29.467Z,17.90
2023-03-03T03:16:56.287Z,19.65
2023-03-03T03:19:23.038Z,24.08
2023-03-03T03:21:49.707Z,19.90
2023-03-03T03:24:16.521Z,21.73
2023-03-03T03:26:43.144Z,22.70
2023-03-03T03:29:10.460Z,18.25
2023-03-03T03:31:38.010Z,23.08
2023-03-03T03:34:04.675Z,23.88
2023-03-03T03:36:31.313Z,18.75
2023-03-03T03:38:57.975Z,21.75
2023-03-03T03:41:24.636Z,27.92
2023-03-03T03:43:51.600Z,21.42
2023-03-03T03:46:18.298Z,19.40
2023-03-03T03:48:45.669Z,19.77
2023-03-03T03:51:12.883Z,20.02
2023-03-03T03:53:39.657Z,18.33
2023-03-03T03:56:06.684Z,19.30
2023-03-03T03:58:33.489Z,17.58
2023-03-03T04:01:07.997Z,13.85
2023-03-03T04:03:35.333Z,16.58
2023-03-03T04:06:01.978Z,27.15
2023-03-03T04:08:28.705Z,19.80
2023-03-03T04:10:55.365Z,17.85
2023-03-03T04:13:22.026Z,19.80
2023-03-03T04:15:48.917Z,16.05
2023-03-03T04:18:15.619Z,17.42
2023-03-03T04:20:42.388Z,15.98
2023-03-03T04:23:09.036Z,15.57
2023-03-03T04:25:35.712Z,17.10
2023-03-03T04:28:03.992Z,19.13
2023-03-03T04:30:32.580Z,18.33
2023-03-03T04:32:59.217Z,20.38
2023-03-03T04:35:25.895Z,20.08
2023-03-03T04:37:52.625Z,22.63
2023-03-03T04:40:19.379Z,23.95
2023-03-03T04:42:46.358Z,20.90
2023-03-03T04:45:13.144Z,22.80
2023-03-03T04:47:40.228Z,22.40
2023-03-03T04:50:08.115Z,22.75
2023-03-03T04:52:34.778Z,20.23
2023-03-03T04:55:01.426Z,22.02
2023-03-03T04:57:28.071Z,24.58
2023-03-03T04:59:54.899Z,22.65
2023-03-03T05:02:21.648Z,23.13
2023-03-03T05:04:48.424Z,19.60
2023-03-03T05:07:15.159Z,23.10
2023-03-03T05:09:41.776Z,21.60
2023-03-03T05:12:08.502Z,27.17
2023-03-03T05:14:35.197Z,20.15
2023-03-03T05:17:03.563Z,23.60
2023-03-03T05:19:30.307Z,23.48
2023-03-03T05:21:57.757Z,20.13
2023-03-03T05:24:24.562Z,26.50
2023-03-03T05:26:51.281Z,22.20
2023-03-03T05:29:17.955Z,25.10
2023-03-03T05:31:45.717Z,24.65
2023-03-03T05:34:12.527Z,23.88
2023-03-03T05:36:39.317Z,20.13
2023-03-03T05:39:06.069Z,22.45
2023-03-03T05:41:32.720Z,24.05
2023-03-03T05:43:59.395Z,21.42
2023-03-03T05:46:26.071Z,22.75
2023-03-03T05:48:52.724Z,22.35
2023-03-03T05:51:19.557Z,26.45
2023-03-03T05:53:46.186Z,23.55
2023-03-03T05:56:12.810Z,22.77
2023-03-03T05:58:39.508Z,28.83
2023-03-03T06:01:06.204Z,23.95
2023-03-03T06:03:33.433Z,25.42
2023-03-03T06:06:00.234Z,27.58
2023-03-03T06:08:26.864Z,29.30
2023-03-03T06:10:53.489Z,24.73
2023-03-03T06:13:20.132Z,20.77
2023-03-03T06:15:46.805Z,22.90
2023-03-03T06:18:13.484Z,25.83
2023-03-03T06:20:40.239Z,25.48
2023-03-03T06:23:06.970Z,26.38
2023-03-03T06:25:35.799Z,23.35
2023-03-03T06:28:04.021Z,23.17
2023-03-03T06:30:30.818Z,21.23
2023-03-03T06:32:57.609Z,24.38
2023-03-03T06:35:24.524Z,19.58
2023-03-03T06:37:51.760Z,23.60
2023-03-03T06:40:18.562Z,26.63
2023-03-03T06:42:45.230Z,23.70
2023-03-03T06:45:12.417Z,25.42
2023-03-03T06:47:39.083Z,22.88
2023-03-03T06:50:06.405Z,22.58
2023-03-03T06:52:33.056Z,22.48
2023-03-03T06:55:02.337Z,22.48
2023-03-03T06:57:31.747Z,26.35
2023-03-03T07:00:20.831Z,26.60
2023-03-03T07:02:53.854Z,27.08
2023-03-03T07:05:21.408Z,25.02
2023-03-03T07:07:48.167Z,23.95
2023-03-03T07:10:26.774Z,26.60
2023-03-03T07:12:54.520Z,20.67
2023-03-03T07:15:34.814Z,27.58
2023-03-03T07:18:02.641Z,21.98
2023-03-03T07:20:41.841Z,31.55
2023-03-03T07:23:23.377Z,27.85
2023-03-03T07:25:51.144Z,23.90
2023-03-03T07:28:25.220Z,25.40
2023-03-03T07:30:54.074Z,19.20
2023-03-03T07:33:20.744Z,28.15
2023-03-03T07:35:47.675Z,23.90
2023-03-03T07:38:14.320Z,23.08
2023-03-03T07:40:49.663Z,22.17
2023-03-03T07:43:43.689Z,27.95
2023-03-03T07:46:10.311Z,31.98
2023-03-03T07:48:42.953Z,29.77
2023-03-03T07:51:37.258Z,26.20
2023-03-03T07:54:28.643Z,27.35
2023-03-03T07:57:08.245Z,30.65
2023-03-03T07:59:37.165Z,28.45
2023-03-03T08:02:17.091Z,29.30
2023-03-03T08:04:52.664Z,31.88
2023-03-03T08:07:22.483Z,29.25
2023-03-03T08:10:02.290Z,23.70
2023-03-03T08:12:42.135Z,26.45
2023-03-03T08:15:25.093Z,21.48
2023-03-03T08:17:54.452Z,23.27
2023-03-03T08:20:44.551Z,24.77
2023-03-03T08:23:12.856Z,27.80
2023-03-03T08:25:40.775Z,23.52
2023-03-03T08:28:07.418Z,24.85
2023-03-03T08:30:34.314Z,24.27
2023-03-03T08:33:01.476Z,26.30
2023-03-03T08:35:28.399Z,23.15
2023-03-03T08:37:55.346Z,29.55
2023-03-03T08:40:22.087Z,28.15
2023-03-03T08:42:48.948Z,27.98
2023-03-03T08:45:15.845Z,22.92
2023-03-03T08:47:43.306Z,28.10
2023-03-03T08:50:11.075Z,24.48
2023-03-03T08:52:37.786Z,25.90
2023-03-03T08:55:05.892Z,25.05
2023-03-03T08:57:33.677Z,20.38
2023-03-03T09:00:00.619Z,20.83
2023-03-03T09:02:27.340Z,18.75
2023-03-03T09:04:53.996Z,22.10
2023-03-03T09:07:20.684Z,19.17
2023-03-03T09:09:47.452Z,21.02
2023-03-03T09:12:29.819Z,20.63
2023-03-03T09:15:00.359Z,16.58
2023-03-03T09:17:34.407Z,22.40
2023-03-03T09:20:22.207Z,15.98
2023-03-03T09:22:50.652Z,18.65
2023-03-03T09:25:33.659Z,12.10
2023-03-03T09:28:04.774Z,14.43
2023-03-03T09:30:40.084Z,13.15
2023-03-03T09:33:39.134Z,15.60
2023-03-03T09:36:35.570Z,10.90
2023-03-03T09:39:24.114Z,17.80
2023-03-03T09:42:16.329Z,16.30
2023-03-03T09:45:18.092Z,11.77
2023-03-03T09:47:48.012Z,16.50
2023-03-03T09:50:56.215Z,15.25
2023-03-03T09:53:44.125Z,12.32
2023-03-03T09:56:13.378Z,10.55
2023-03-03T09:59:01.170Z,8.90
2023-03-03T10:01:49.216Z,12.65
2023-03-03T10:04:37.916Z,9.32
2023-03-03T10:07:19.176Z,9.63
2023-03-03T10:10:13.773Z,8.98
2023-03-03T10:13:00.636Z,8.95
2023-03-03T10:15:40.555Z,13.90
2023-03-03T10:18:24.581Z,8.45
2023-03-03T10:21:37.479Z,8.68
2023-03-03T10:24:17.295Z,9.57
2023-03-03T10:27:14.602Z,15.13
2023-03-03T10:30:24.286Z,16.17
2023-03-03T10:33:33.120Z,16.75
2023-03-03T10:36:11.983Z,15.00
2023-03-03T10:38:59.881Z,17.30
2023-03-03T10:42:07.831Z,16.67
2023-03-03T10:44:46.106Z,15.40
2023-03-03T10:47:46.719Z,15.00
2023-03-03T10:50:35.783Z,12.45
2023-03-03T10:53:21.148Z,15.40
2023-03-03T10:56:14.611Z,12.95
2023-03-03T10:59:01.324Z,17.52
2023-03-03T11:01:59.139Z,14.75
2023-03-03T11:04:44.327Z,16.95
2023-03-03T11:10:21.437Z,18.05
2023-03-03T11:13:09.132Z,9.95
2023-03-03T11:15:47.328Z,11.40
2023-03-03T11:18:22.297Z,10.82
2023-03-03T11:21:06.028Z,21.75
2023-03-03T11:23:41.400Z,21.02
2023-03-03T11:26:15.708Z,14.23
2023-03-03T11:29:04.470Z,19.20
2023-03-03T11:31:38.477Z,10.63
2023-03-03T11:34:21.123Z,11.93
2023-03-03T11:37:01.961Z,15.55
2023-03-03T11:39:28.579Z,18.58
2023-03-03T11:42:17.280Z,12.85
2023-03-03T11:45:00.548Z,16.90
2023-03-03T11:47:39.285Z,15.35
2023-03-03T11:50:17.329Z,12.52
2023-03-03T11:52:47.848Z,24.42
2023-03-03T11:55:37.861Z,12.25
2023-03-03T11:58:25.127Z,12.50
2023-03-03T12:01:03.178Z,14.40
2023-03-03T12:03:45.987Z,12.38
2023-03-03T12:06:27.796Z,8.43
2023-03-03T12:09:21.978Z,21.02
2023-03-03T12:12:08.828Z,14.57
2023-03-03T12:15:03.732Z,19.35
2023-03-03T12:17:41.210Z,19.48
2023-03-03T12:20:22.782Z,8.98
2023-03-03T12:23:06.539Z,15.35
2023-03-03T12:25:41.136Z,8.43
2023-03-03T12:28:21.585Z,16.58
2023-03-03T12:31:16.062Z,13.25
2023-03-03T12:33:58.737Z,22.88
2023-03-03T12:37:12.770Z,11.00
2023-03-03T12:39:48.211Z,15.57
2023-03-03T12:42:31.874Z,10.30
2023-03-03T12:45:21.680Z,23.10
2023-03-03T12:47:58.362Z,16.45
2023-03-03T12:50:34.497Z,17.67
2023-03-03T12:53:13.027Z,16.48
2023-03-03T12:55:53.689Z,19.13
2023-03-03T12:58:33.970Z,9.52
2023-03-03T13:01:30.497Z,16.23
2023-03-03T13:04:27.755Z,15.80
2023-03-03T13:07:10.283Z,20.80
2023-03-03T13:10:14.492Z,8.93
2023-03-03T13:12:50.396Z,10.70
2023-03-03T13:15:32.850Z,16.13
2023-03-03T13:18:24.933Z,14.43
2023-03-03T13:21:14.236Z,21.52
2023-03-03T13:23:55.813Z,14.75
2023-03-03T13:26:45.168Z,15.43
2023-03-03T13:29:30.431Z,14.73
2023-03-03T13:34:43.325Z,20.23
2023-03-03T13:37:16.024Z,15.57
2023-03-03T13:40:01.505Z,14.18
2023-03-03T13:42:43.329Z,16.20
2023-03-03T13:45:27.523Z,18.33
2023-03-03T13:48:32.145Z,10.00
2023-03-03T13:51:08.637Z,11.73
2023-03-03T13:53:59.648Z,16.27
2023-03-03T13:56:44.486Z,19.40
2023-03-03T13:59:26.052Z,14.43
2023-03-03T14:02:17.904Z,18.50
2023-03-03T14:04:57.857Z,21.75
2023-03-03T14:08:01.781Z,13.20
2023-03-03T14:10:49.021Z,15.32
2023-03-03T14:13:47.183Z,13.35
2023-03-03T14:16:19.541Z,13.98
2023-03-03T14:19:15.070Z,17.70
2023-03-03T14:22:15.574Z,16.73
2023-03-03T14:25:06.603Z,27.20
2023-03-03T14:27:48.123Z,15.55
2023-03-03T14:30:27.029Z,19.48
2023-03-03T14:33:18.761Z,11.38
2023-03-03T14:36:00.422Z,12.30
2023-03-03T14:38:33.185Z,17.42
2023-03-03T14:41:12.077Z,16.00
2023-03-03T14:43:41.039Z,22.58
2023-03-03T14:46:36.776Z,13.95
2023-03-03T14:49:15.082Z,13.05
2023-03-03T14:51:47.993Z,20.25
2023-03-03T14:54:24.784Z,17.27
2023-03-03T14:57:07.176Z,12.20
2023-03-03T14:59:33.988Z,12.40
2023-03-03T15:02:18.788Z,14.77
2023-03-03T15:04:47.711Z,15.75
2023-03-03T15:07:23.321Z,15.00
2023-03-03T15:09:50.508Z,9.57
2023-03-03T15:12:44.606Z,8.57
2023-03-03T15:15:22.446Z,15.15
2023-03-03T15:18:13.538Z,18.50
2023-03-03T15:21:00.761Z,9.27
2023-03-03T15:23:39.373Z,14.88
2023-03-03T15:26:30.052Z,14.10
2023-03-03T15:29:17.600Z,9.77
2023-03-03T15:32:26.171Z,12.55
2023-03-03T15:35:00.099Z,8.93
2023-03-03T15:37:39.490Z,12.27
2023-03-03T15:40:14.936Z,8.77
2023-03-03T15:43:13.491Z,15.25
2023-03-03T15:45:46.754Z,10.70
2023-03-03T15:48:34.527Z,7.07
2023-03-03T15:51:10.377Z,8.15
2023-03-03T15:53:52.603Z,7.72
2023-03-03T15:56:58.424Z,13.65
2023-03-03T16:02:06.781Z,6.88
2023-03-03T16:04:37.658Z,13.10
2023-03-03T16:07:41.554Z,9.73
2023-03-03T16:10:18.751Z,14.10
2023-03-03T16:12:45.425Z,7.22
2023-03-03T16:15:12.074Z,6.90
2023-03-03T16:18:01.982Z,10.60
2023-03-03T16:20:31.269Z,8.25
2023-03-03T16:23:22.552Z,9.30
2023-03-03T16:26:06.279Z,7.90
2023-03-03T16:28:43.938Z,8.48
2023-03-03T16:31:22.468Z,9.02
2023-03-03T16:33:54.878Z,9.32
2023-03-03T16:37:01.673Z,7.82
2023-03-03T16:39:37.031Z,9.32
2023-03-03T16:42:29.370Z,10.90
2023-03-03T16:45:21.823Z,10.50
2023-03-03T16:48:10.405Z,13.00
2023-03-03T16:51:04.959Z,9.65
2023-03-03T16:53:49.223Z,8.20
2023-03-03T16:56:28.786Z,14.60
2023-03-03T16:59:47.138Z,12.13
2023-03-03T17:02:34.986Z,16.23
2023-03-03T17:05:14.624Z,12.85
2023-03-03T17:07:49.459Z,13.57
2023-03-03T17:12:54.444Z,10.02
2023-03-03T17:15:55.195Z,12.38
2023-03-03T17:18:45.906Z,9.90
2023-03-03T17:21:50.090Z,15.40
2023-03-03T17:24:31.946Z,12.10
2023-03-03T17:27:32.237Z,8.43
2023-03-03T17:30:13.054Z,11.13
2023-03-03T17:33:23.355Z,10.57
2023-03-03T17:36:09.051Z,11.00
2023-03-03T17:38:44.404Z,12.85
2023-03-03T17:41:25.985Z,10.27
2023-03-03T17:44:25.345Z,9.90
2023-03-03T17:46:59.039Z,14.90
2023-03-03T17:52:44.114Z,9.02
2023-03-03T17:55:28.604Z,9.38
2023-03-03T17:58:07.164Z,8.00
2023-03-03T18:00:54.091Z,9.77
2023-03-03T18:03:32.938Z,8.70
2023-03-03T18:06:14.986Z,14.73
2023-03-03T18:09:14.287Z,10.40
2023-03-03T18:12:00.922Z,8.90
2023-03-03T18:14:49.231Z,9.77
2023-03-03T18:17:37.643Z,8.68
2023-03-03T18:20:47.510Z,14.77
2023-03-03T18:23:41.890Z,9.02
2023-03-03T18:26:31.328Z,7.78
2023-03-03T18:29:13.868Z,17.67
2023-03-03T18:32:05.100Z,14.73
2023-03-03T18:34:41.777Z,8.55
2023-03-03T18:37:10.934Z,9.82
2023-03-03T18:39:46.670Z,7.22
2023-03-03T18:42:16.416Z,9.18
2023-03-03T18:44:47.989Z,14.98
2023-03-03T18:47:17.673Z,9.30
2023-03-03T18:49:47.105Z,16.25
2023-03-03T18:52:19.924Z,8.85
2023-03-03T18:55:09.958Z,12.77
2023-03-03T18:57:37.703Z,10.75
2023-03-03T19:00:24.538Z,9.98
2023-03-03T19:02:53.993Z,14.52
2023-03-03T19:05:28.775Z,11.90
2023-03-03T19:10:21.905Z,15.02
2023-03-03T19:12:52.833Z,7.97
2023-03-03T19:15:31.625Z,8.00
2023-03-03T19:18:18.890Z,7.82
2023-03-03T19:20:51.509Z,8.20
2023-03-03T19:23:26.117Z,15.65
2023-03-03T19:26:20.945Z,9.73
2023-03-03T19:29:12.216Z,8.50
2023-03-03T19:31:50.451Z,14.48
2023-03-03T19:34:32.786Z,15.93
2023-03-03T19:37:08.472Z,9.98
2023-03-03T19:40:03.457Z,11.55
2023-03-03T19:42:30.088Z,10.60
2023-03-03T19:45:19.614Z,11.38
2023-03-03T19:48:36.758Z,16.27
2023-03-03T19:51:20.867Z,11.00
2023-03-03T19:53:53.375Z,8.90
2023-03-03T19:58:56.706Z,8.77
2023-03-03T20:02:08.133Z,13.98
2023-03-03T20:04:46.740Z,14.27
2023-03-03T20:07:34.937Z,18.95
2023-03-03T20:12:13.314Z,7.80
2023-03-03T20:14:46.887Z,9.75
2023-03-03T20:17:43.356Z,8.38
2023-03-03T20:20:32.554Z,8.27
2023-03-03T20:23:17.909Z,6.90
2023-03-03T20:26:07.612Z,10.13
2023-03-03T20:28:46.542Z,7.13
2023-03-03T20:31:22.041Z,13.05
2023-03-03T20:33:52.424Z,8.75
2023-03-03T20:37:00.574Z,8.18
2023-03-03T20:39:38.937Z,12.50
2023-03-03T20:42:26.982Z,7.47
2023-03-03T20:45:22.151Z,9.77
2023-03-03T20:48:11.687Z,12.10
2023-03-03T20:50:53.991Z,13.00
2023-03-03T20:53:34.870Z,7.97
2023-03-03T20:56:25.667Z,10.25
2023-03-03T20:59:32.067Z,8.32
2023-03-03T21:02:29.509Z,15.23
2023-03-03T21:05:15.927Z,8.05
2023-03-03T21:08:03.162Z,10.05
2023-03-03T21:10:35.750Z,7.22
2023-03-03T21:13:25.628Z,14.27
2023-03-03T21:16:01.900Z,9.93
2023-03-03T21:18:28.662Z,13.85
2023-03-03T21:20:55.421Z,10.90
2023-03-03T21:23:23.132Z,14.02
2023-03-03T21:25:54.837Z,11.23
2023-03-03T21:31:14.162Z,18.27
2023-03-03T21:33:52.481Z,20.48
2023-03-03T21:36:46.387Z,11.55
2023-03-03T21:39:29.490Z,6.47
2023-03-03T21:41:58.154Z,17.83
2023-03-03T21:44:44.865Z,9.50
2023-03-03T21:47:14.885Z,8.07
2023-03-03T21:49:46.782Z,14.52
2023-03-03T21:52:16.502Z,6.82
2023-03-03T21:54:44.603Z,19.05
2023-03-03T21:57:11.641Z,6.88
2023-03-03T21:59:38.591Z,10.23
2023-03-03T22:02:06.089Z,11.68
2023-03-03T22:04:34.436Z,13.80
2023-03-03T22:07:01.327Z,9.18
2023-03-03T22:09:28.051Z,9.52
2023-03-03T22:11:54.699Z,11.68
2023-03-03T22:14:21.417Z,14.15
2023-03-03T22:16:48.046Z,12.18
2023-03-03T22:19:14.754Z,7.35
2023-03-03T22:21:41.410Z,8.48
2023-03-03T22:24:08.878Z,14.40
2023-03-03T22:26:36.024Z,7.72
2023-03-03T22:29:02.732Z,16.83
2023-03-03T22:31:29.391Z,10.30
2023-03-03T22:33:56.175Z,9.57
2023-03-03T22:36:23.482Z,6.65
2023-03-03T22:38:50.265Z,9.68
2023-03-03T22:41:17.672Z,12.95
2023-03-03T22:43:44.566Z,8.98
2023-03-03T22:46:11.699Z,13.77
2023-03-03T22:48:38.721Z,17.40
2023-03-03T22:51:05.969Z,10.35
2023-03-03T22:53:32.595Z,14.80
2023-03-03T22:55:59.343Z,19.15
2023-03-03T22:58:26.286Z,9.70
2023-03-03T23:00:54.129Z,14.40
2023-03-03T23:03:21.317Z,13.40
2023-03-03T23:05:51.332Z,11.77
2023-03-03T23:08:18.979Z,7.80
2023-03-03T23:10:46.149Z,8.27
2023-03-03T23:15:51.318Z,14.88
2023-03-03T23:18:17.966Z,8.80
2023-03-03T23:20:46.146Z,12.50
2023-03-03T23:23:13.066Z,15.52
2023-03-03T23:25:39.877Z,12.15
2023-03-03T23:30:46.437Z,9.63
2023-03-03T23:33:13.197Z,9.38
2023-03-03T23:35:40.118Z,18.15
2023-03-03T23:38:06.847Z,12.88
2023-03-03T23:42:46.943Z,13.23
2023-03-03T23:45:14.287Z,7.85
2023-03-03T23:47:40.981Z,11.35
2023-03-03T23:50:09.180Z,9.68
2023-03-03T23:52:36.490Z,9.05
2023-03-03T23:55:04.253Z,9.15
2023-03-03T23:57:30.931Z,11.40
2023-03-03T23:59:57.571Z,10.43
